Аэропорт: Большое Савино. Пермь

ICAO: USPP

METAR:
2021-04-21 21:30:00
USPP 212130Z 13004MPS CAVOK 06/M08 Q1026 R21/090060 NOSIG RMK QFE759
METAR:
2021-04-21 19:58:00
TAF USPP 211958Z 2121/2221 15003G12MPS CAVOK BECMG 2200/2202 19005G15MPS BECMG 2203/2205 -RA BKN016